sensor_id;sensor_type;location;lat;lon;timestamp;P1;durP1;ratioP1;P2;durP2;ratioP2
54627;SDS011;40525;55.926;21.066;2022-12-29T00:00:05;8.63;;;1.67;;
54627;SDS011;40525;55.926;21.066;2022-12-29T00:02:39;3.37;;;1.32;;
54627;SDS011;40525;55.926;21.066;2022-12-29T00:05:06;3.75;;;1.77;;
54627;SDS011;40525;55.926;21.066;2022-12-29T00:07:33;7.10;;;1.90;;
54627;SDS011;40525;55.926;21.066;2022-12-29T00:09:59;4.28;;;1.90;;
54627;SDS011;40525;55.926;21.066;2022-12-29T00:12:26;4.65;;;1.77;;
54627;SDS011;40525;55.926;21.066;2022-12-29T00:14:54;6.40;;;1.70;;
54627;SDS011;40525;55.926;21.066;2022-12-29T00:17:39;4.08;;;1.57;;
54627;SDS011;40525;55.926;21.066;2022-12-29T00:20:06;3.08;;;1.60;;
54627;SDS011;40525;55.926;21.066;2022-12-29T00:22:52;4.60;;;1.75;;
54627;SDS011;40525;55.926;21.066;2022-12-29T00:25:37;4.67;;;1.82;;
54627;SDS011;40525;55.926;21.066;2022-12-29T00:28:22;3.72;;;1.60;;
54627;SDS011;40525;55.926;21.066;2022-12-29T00:31:09;7.12;;;1.90;;
54627;SDS011;40525;55.926;21.066;2022-12-29T00:33:56;7.45;;;1.90;;
54627;SDS011;40525;55.926;21.066;2022-12-29T00:36:41;4.03;;;1.95;;
54627;SDS011;40525;55.926;21.066;2022-12-29T00:39:12;3.40;;;1.87;;
54627;SDS011;40525;55.926;21.066;2022-12-29T00:42:09;5.87;;;2.17;;
54627;SDS011;40525;55.926;21.066;2022-12-29T00:44:53;5.55;;;2.30;;
54627;SDS011;40525;55.926;21.066;2022-12-29T00:47:19;7.70;;;1.95;;
54627;SDS011;40525;55.926;21.066;2022-12-29T00:49:46;5.17;;;2.02;;
54627;SDS011;40525;55.926;21.066;2022-12-29T00:52:12;5.17;;;2.10;;
54627;SDS011;40525;55.926;21.066;2022-12-29T00:54:40;5.85;;;1.92;;
54627;SDS011;40525;55.926;21.066;2022-12-29T00:57:08;3.42;;;1.60;;
54627;SDS011;40525;55.926;21.066;2022-12-29T00:59:35;7.92;;;2.37;;
54627;SDS011;40525;55.926;21.066;2022-12-29T01:02:03;7.28;;;2.17;;
54627;SDS011;40525;55.926;21.066;2022-12-29T01:04:30;4.53;;;2.12;;
54627;SDS011;40525;55.926;21.066;2022-12-29T01:06:57;6.33;;;1.52;;
54627;SDS011;40525;55.926;21.066;2022-12-29T01:09:23;5.60;;;1.75;;
54627;SDS011;40525;55.926;21.066;2022-12-29T01:12:09;5.33;;;1.80;;
54627;SDS011;40525;55.926;21.066;2022-12-29T01:14:36;3.83;;;1.82;;
54627;SDS011;40525;55.926;21.066;2022-12-29T01:17:03;3.08;;;1.62;;
54627;SDS011;40525;55.926;21.066;2022-12-29T01:19:31;5.70;;;1.52;;
54627;SDS011;40525;55.926;21.066;2022-12-29T01:21:59;3.22;;;1.70;;
54627;SDS011;40525;55.926;21.066;2022-12-29T01:24:27;4.20;;;1.85;;
54627;SDS011;40525;55.926;21.066;2022-12-29T01:26:53;4.28;;;2.15;;
54627;SDS011;40525;55.926;21.066;2022-12-29T01:29:20;3.17;;;1.65;;
54627;SDS011;40525;55.926;21.066;2022-12-29T01:31:46;4.55;;;1.90;;
54627;SDS011;40525;55.926;21.066;2022-12-29T01:34:15;6.33;;;2.22;;
54627;SDS011;40525;55.926;21.066;2022-12-29T01:36:41;5.62;;;1.67;;
54627;SDS011;40525;55.926;21.066;2022-12-29T01:39:08;3.90;;;1.82;;
54627;SDS011;40525;55.926;21.066;2022-12-29T01:41:35;5.67;;;2.17;;
54627;SDS011;40525;55.926;21.066;2022-12-29T01:44:01;4.05;;;1.72;;
54627;SDS011;40525;55.926;21.066;2022-12-29T01:46:45;3.12;;;2.10;;
54627;SDS011;40525;55.926;21.066;2022-12-29T01:49:18;4.00;;;1.77;;
54627;SDS011;40525;55.926;21.066;2022-12-29T01:57:07;5.90;;;2.25;;
54627;SDS011;40525;55.926;21.066;2022-12-29T01:59:43;6.65;;;2.20;;
54627;SDS011;40525;55.926;21.066;2022-12-29T02:02:14;4.45;;;2.52;;
54627;SDS011;40525;55.926;21.066;2022-12-29T02:04:41;4.15;;;1.82;;
54627;SDS011;40525;55.926;21.066;2022-12-29T02:07:29;3.72;;;2.35;;
54627;SDS011;40525;55.926;21.066;2022-12-29T02:09:55;5.15;;;2.55;;
54627;SDS011;40525;55.926;21.066;2022-12-29T02:12:24;8.05;;;2.95;;
54627;SDS011;40525;55.926;21.066;2022-12-29T02:14:52;3.42;;;2.12;;
54627;SDS011;40525;55.926;21.066;2022-12-29T02:28:53;4.95;;;2.83;;
54627;SDS011;40525;55.926;21.066;2022-12-29T02:37:26;5.28;;;2.65;;
54627;SDS011;40525;55.926;21.066;2022-12-29T02:40:16;5.67;;;3.33;;
54627;SDS011;40525;55.926;21.066;2022-12-29T02:48:38;4.03;;;1.87;;
54627;SDS011;40525;55.926;21.066;2022-12-29T02:51:20;3.08;;;1.50;;
54627;SDS011;40525;55.926;21.066;2022-12-29T02:53:54;5.53;;;2.95;;
54627;SDS011;40525;55.926;21.066;2022-12-29T02:56:40;4.08;;;2.92;;
54627;SDS011;40525;55.926;21.066;2022-12-29T02:59:06;8.73;;;3.83;;
54627;SDS011;40525;55.926;21.066;2022-12-29T03:01:45;3.77;;;;;
54627;SDS011;40525;55.926;21.066;2022-12-29T03:07:54;5.55;;;2.95;;
54627;SDS011;40525;55.926;21.066;2022-12-29T03:16:36;5.42;;;1.95;;
54627;SDS011;40525;55.926;21.066;2022-12-29T03:21:46;8.28;;;4.50;;
54627;SDS011;40525;55.926;21.066;2022-12-29T03:24:40;6.83;;;3.85;;
54627;SDS011;40525;55.926;21.066;2022-12-29T03:27:13;7.62;;;3.95;;
54627;SDS011;40525;55.926;21.066;2022-12-29T03:29:48;7.90;;;4.53;;
54627;SDS011;40525;55.926;21.066;2022-12-29T03:32:19;6.55;;;3.95;;
54627;SDS011;40525;55.926;21.066;2022-12-29T03:34:51;5.17;;;3.15;;
54627;SDS011;40525;55.926;21.066;2022-12-29T03:37:22;5.67;;;3.45;;
54627;SDS011;40525;55.926;21.066;2022-12-29T03:39:52;5.47;;;3.02;;
54627;SDS011;40525;55.926;21.066;2022-12-29T03:42:19;7.33;;;4.78;;
54627;SDS011;40525;55.926;21.066;2022-12-29T03:44:49;7.42;;;3.70;;
54627;SDS011;40525;55.926;21.066;2022-12-29T03:47:21;7.60;;;4.37;;
54627;SDS011;40525;55.926;21.066;2022-12-29T03:49:50;5.80;;;3.90;;
54627;SDS011;40525;55.926;21.066;2022-12-29T03:52:17;6.00;;;3.90;;
54627;SDS011;40525;55.926;21.066;2022-12-29T03:54:44;5.97;;;3.58;;
54627;SDS011;40525;55.926;21.066;2022-12-29T03:57:11;5.50;;;3.70;;
54627;SDS011;40525;55.926;21.066;2022-12-29T03:59:45;6.45;;;3.72;;
54627;SDS011;40525;55.926;21.066;2022-12-29T04:02:12;4.30;;;2.62;;
54627;SDS011;40525;55.926;21.066;2022-12-29T04:04:40;5.30;;;3.47;;
54627;SDS011;40525;55.926;21.066;2022-12-29T04:07:06;5.83;;;4.30;;
54627;SDS011;40525;55.926;21.066;2022-12-29T04:09:33;5.90;;;3.92;;
54627;SDS011;40525;55.926;21.066;2022-12-29T04:12:00;5.37;;;3.77;;
54627;SDS011;40525;55.926;21.066;2022-12-29T04:14:27;4.30;;;2.37;;
54627;SDS011;40525;55.926;21.066;2022-12-29T04:16:55;5.75;;;2.52;;
54627;SDS011;40525;55.926;21.066;2022-12-29T04:19:22;5.33;;;2.37;;
54627;SDS011;40525;55.926;21.066;2022-12-29T04:21:49;5.80;;;3.08;;
54627;SDS011;40525;55.926;21.066;2022-12-29T04:24:16;6.45;;;3.75;;
54627;SDS011;40525;55.926;21.066;2022-12-29T04:26:43;6.37;;;2.90;;
54627;SDS011;40525;55.926;21.066;2022-12-29T04:29:28;5.72;;;4.03;;
54627;SDS011;40525;55.926;21.066;2022-12-29T04:31:56;4.33;;;2.67;;
54627;SDS011;40525;55.926;21.066;2022-12-29T04:34:23;5.53;;;3.70;;
54627;SDS011;40525;55.926;21.066;2022-12-29T04:36:49;6.35;;;4.42;;
54627;SDS011;40525;55.926;21.066;2022-12-29T04:39:16;7.72;;;3.55;;
54627;SDS011;40525;55.926;21.066;2022-12-29T04:41:48;5.75;;;3.02;;
54627;SDS011;40525;55.926;21.066;2022-12-29T04:44:19;4.80;;;3.35;;
54627;SDS011;40525;55.926;21.066;2022-12-29T04:46:47;7.50;;;3.95;;
54627;SDS011;40525;55.926;21.066;2022-12-29T04:49:15;7.08;;;4.10;;
54627;SDS011;40525;55.926;21.066;2022-12-29T04:52:02;7.08;;;3.72;;
54627;SDS011;40525;55.926;21.066;2022-12-29T04:54:30;8.33;;;4.17;;
54627;SDS011;40525;55.926;21.066;2022-12-29T04:57:01;4.33;;;2.25;;
54627;SDS011;40525;55.926;21.066;2022-12-29T04:59:28;5.47;;;3.27;;
54627;SDS011;40525;55.926;21.066;2022-12-29T05:01:56;8.70;;;3.80;;
54627;SDS011;40525;55.926;21.066;2022-12-29T05:04:23;5.12;;;3.27;;
54627;SDS011;40525;55.926;21.066;2022-12-29T05:06:49;5.83;;;3.62;;
54627;SDS011;40525;55.926;21.066;2022-12-29T05:09:17;6.30;;;3.60;;
54627;SDS011;40525;55.926;21.066;2022-12-29T05:11:44;7.62;;;3.52;;
54627;SDS011;40525;55.926;21.066;2022-12-29T05:14:10;4.78;;;2.62;;
54627;SDS011;40525;55.926;21.066;2022-12-29T05:16:37;5.00;;;3.45;;
54627;SDS011;40525;55.926;21.066;2022-12-29T05:19:04;7.53;;;3.83;;
54627;SDS011;40525;55.926;21.066;2022-12-29T05:21:32;8.05;;;3.47;;
54627;SDS011;40525;55.926;21.066;2022-12-29T05:23:58;8.50;;;3.87;;
54627;SDS011;40525;55.926;21.066;2022-12-29T05:26:25;6.58;;;3.02;;
54627;SDS011;40525;55.926;21.066;2022-12-29T05:28:56;6.55;;;2.98;;
54627;SDS011;40525;55.926;21.066;2022-12-29T05:31:23;6.00;;;2.85;;
54627;SDS011;40525;55.926;21.066;2022-12-29T05:33:49;7.85;;;3.00;;
54627;SDS011;40525;55.926;21.066;2022-12-29T05:36:16;6.35;;;2.60;;
54627;SDS011;40525;55.926;21.066;2022-12-29T05:38:45;6.40;;;2.75;;
54627;SDS011;40525;55.926;21.066;2022-12-29T05:41:12;8.10;;;3.05;;
54627;SDS011;40525;55.926;21.066;2022-12-29T05:43:46;7.95;;;3.20;;
54627;SDS011;40525;55.926;21.066;2022-12-29T05:46:15;9.25;;;2.60;;
54627;SDS011;40525;55.926;21.066;2022-12-29T05:48:43;6.20;;;2.10;;
54627;SDS011;40525;55.926;21.066;2022-12-29T05:51:12;10.70;;;3.12;;
54627;SDS011;40525;55.926;21.066;2022-12-29T05:53:46;5.20;;;2.15;;
54627;SDS011;40525;55.926;21.066;2022-12-29T05:56:14;8.08;;;2.20;;
54627;SDS011;40525;55.926;21.066;2022-12-29T05:58:41;10.32;;;3.95;;
54627;SDS011;40525;55.926;21.066;2022-12-29T06:01:08;4.83;;;2.60;;
54627;SDS011;40525;55.926;21.066;2022-12-29T06:03:34;9.95;;;2.47;;
54627;SDS011;40525;55.926;21.066;2022-12-29T06:06:01;4.65;;;1.77;;
54627;SDS011;40525;55.926;21.066;2022-12-29T06:08:28;5.05;;;2.00;;
54627;SDS011;40525;55.926;21.066;2022-12-29T06:10:54;6.80;;;2.40;;
54627;SDS011;40525;55.926;21.066;2022-12-29T06:13:23;6.22;;;2.00;;
54627;SDS011;40525;55.926;21.066;2022-12-29T06:15:49;6.42;;;2.35;;
54627;SDS011;40525;55.926;21.066;2022-12-29T06:18:17;4.83;;;2.35;;
54627;SDS011;40525;55.926;21.066;2022-12-29T06:20:43;3.37;;;1.42;;
54627;SDS011;40525;55.926;21.066;2022-12-29T06:23:10;4.33;;;2.08;;
54627;SDS011;40525;55.926;21.066;2022-12-29T06:25:38;7.05;;;2.58;;
54627;SDS011;40525;55.926;21.066;2022-12-29T06:28:06;3.60;;;1.52;;
54627;SDS011;40525;55.926;21.066;2022-12-29T06:30:32;2.70;;;1.60;;
54627;SDS011;40525;55.926;21.066;2022-12-29T06:33:00;9.30;;;2.52;;
54627;SDS011;40525;55.926;21.066;2022-12-29T06:35:27;5.05;;;1.90;;
54627;SDS011;40525;55.926;21.066;2022-12-29T06:37:54;5.90;;;2.62;;
54627;SDS011;40525;55.926;21.066;2022-12-29T06:40:20;6.65;;;2.17;;
54627;SDS011;40525;55.926;21.066;2022-12-29T06:43:05;4.00;;;2.10;;
54627;SDS011;40525;55.926;21.066;2022-12-29T06:45:48;5.10;;;2.02;;
54627;SDS011;40525;55.926;21.066;2022-12-29T06:48:15;7.28;;;2.08;;
54627;SDS011;40525;55.926;21.066;2022-12-29T06:50:41;5.08;;;2.08;;
54627;SDS011;40525;55.926;21.066;2022-12-29T06:53:07;7.47;;;2.55;;
54627;SDS011;40525;55.926;21.066;2022-12-29T06:55:34;4.08;;;2.30;;
54627;SDS011;40525;55.926;21.066;2022-12-29T06:58:01;5.65;;;2.58;;
54627;SDS011;40525;55.926;21.066;2022-12-29T07:00:27;3.40;;;2.15;;
54627;SDS011;40525;55.926;21.066;2022-12-29T07:02:54;4.17;;;2.00;;
54627;SDS011;40525;55.926;21.066;2022-12-29T07:05:23;3.15;;;1.60;;
54627;SDS011;40525;55.926;21.066;2022-12-29T07:07:52;4.00;;;2.15;;
54627;SDS011;40525;55.926;21.066;2022-12-29T07:10:20;8.10;;;2.65;;
54627;SDS011;40525;55.926;21.066;2022-12-29T07:12:47;5.62;;;2.42;;
54627;SDS011;40525;55.926;21.066;2022-12-29T07:15:14;7.10;;;1.92;;
54627;SDS011;40525;55.926;21.066;2022-12-29T07:17:40;6.72;;;2.35;;
54627;SDS011;40525;55.926;21.066;2022-12-29T07:20:07;3.83;;;2.40;;
54627;SDS011;40525;55.926;21.066;2022-12-29T07:22:35;5.65;;;1.62;;
54627;SDS011;40525;55.926;21.066;2022-12-29T07:25:02;7.92;;;2.70;;
54627;SDS011;40525;55.926;21.066;2022-12-29T07:27:29;3.33;;;2.12;;
54627;SDS011;40525;55.926;21.066;2022-12-29T07:29:55;9.30;;;2.77;;
54627;SDS011;40525;55.926;21.066;2022-12-29T07:32:22;5.53;;;2.05;;
54627;SDS011;40525;55.926;21.066;2022-12-29T07:34:48;5.70;;;2.35;;
54627;SDS011;40525;55.926;21.066;2022-12-29T07:37:15;3.20;;;1.95;;
54627;SDS011;40525;55.926;21.066;2022-12-29T07:39:41;3.08;;;2.00;;
54627;SDS011;40525;55.926;21.066;2022-12-29T07:42:08;7.40;;;2.85;;
54627;SDS011;40525;55.926;21.066;2022-12-29T07:44:43;6.05;;;3.15;;
54627;SDS011;40525;55.926;21.066;2022-12-29T07:47:17;7.70;;;3.33;;
54627;SDS011;40525;55.926;21.066;2022-12-29T07:49:43;6.05;;;2.98;;
54627;SDS011;40525;55.926;21.066;2022-12-29T07:52:10;3.75;;;2.75;;
54627;SDS011;40525;55.926;21.066;2022-12-29T07:54:37;9.70;;;3.55;;
54627;SDS011;40525;55.926;21.066;2022-12-29T07:57:03;5.85;;;3.60;;
54627;SDS011;40525;55.926;21.066;2022-12-29T07:59:31;4.75;;;2.47;;
54627;SDS011;40525;55.926;21.066;2022-12-29T08:01:57;5.20;;;3.20;;
54627;SDS011;40525;55.926;21.066;2022-12-29T08:04:24;5.97;;;3.08;;
54627;SDS011;40525;55.926;21.066;2022-12-29T08:06:51;5.97;;;2.65;;
54627;SDS011;40525;55.926;21.066;2022-12-29T08:09:17;7.15;;;2.92;;
54627;SDS011;40525;55.926;21.066;2022-12-29T08:11:44;3.50;;;2.27;;
54627;SDS011;40525;55.926;21.066;2022-12-29T08:14:10;3.17;;;2.10;;
54627;SDS011;40525;55.926;21.066;2022-12-29T08:16:37;6.35;;;3.15;;
54627;SDS011;40525;55.926;21.066;2022-12-29T08:19:03;4.78;;;2.65;;
54627;SDS011;40525;55.926;21.066;2022-12-29T08:21:30;7.90;;;3.27;;
54627;SDS011;40525;55.926;21.066;2022-12-29T08:23:57;4.65;;;2.90;;
54627;SDS011;40525;55.926;21.066;2022-12-29T08:26:24;4.90;;;3.05;;
54627;SDS011;40525;55.926;21.066;2022-12-29T08:28:54;5.35;;;2.67;;
54627;SDS011;40525;55.926;21.066;2022-12-29T08:31:21;5.30;;;3.52;;
54627;SDS011;40525;55.926;21.066;2022-12-29T08:33:49;5.58;;;3.12;;
54627;SDS011;40525;55.926;21.066;2022-12-29T08:36:16;5.22;;;2.80;;
54627;SDS011;40525;55.926;21.066;2022-12-29T08:38:43;4.90;;;2.77;;
54627;SDS011;40525;55.926;21.066;2022-12-29T08:41:09;6.35;;;3.37;;
54627;SDS011;40525;55.926;21.066;2022-12-29T08:43:36;4.30;;;2.80;;
54627;SDS011;40525;55.926;21.066;2022-12-29T08:46:02;6.72;;;3.92;;
54627;SDS011;40525;55.926;21.066;2022-12-29T08:48:29;7.20;;;3.55;;
54627;SDS011;40525;55.926;21.066;2022-12-29T08:50:56;5.60;;;2.45;;
54627;SDS011;40525;55.926;21.066;2022-12-29T08:53:22;6.03;;;2.80;;
54627;SDS011;40525;55.926;21.066;2022-12-29T08:55:54;5.70;;;3.58;;
54627;SDS011;40525;55.926;21.066;2022-12-29T08:58:23;6.65;;;3.27;;
54627;SDS011;40525;55.926;21.066;2022-12-29T09:00:54;6.95;;;3.58;;
54627;SDS011;40525;55.926;21.066;2022-12-29T09:03:22;5.28;;;3.40;;
54627;SDS011;40525;55.926;21.066;2022-12-29T09:05:55;5.55;;;3.50;;
54627;SDS011;40525;55.926;21.066;2022-12-29T09:08:20;5.58;;;3.40;;
54627;SDS011;40525;55.926;21.066;2022-12-29T09:10:47;9.18;;;4.78;;
54627;SDS011;40525;55.926;21.066;2022-12-29T09:13:15;8.30;;;3.25;;
54627;SDS011;40525;55.926;21.066;2022-12-29T09:15:43;7.70;;;4.55;;
54627;SDS011;40525;55.926;21.066;2022-12-29T09:18:10;9.23;;;4.22;;
54627;SDS011;40525;55.926;21.066;2022-12-29T09:20:37;9.55;;;4.37;;
54627;SDS011;40525;55.926;21.066;2022-12-29T09:23:04;10.03;;;5.25;;
54627;SDS011;40525;55.926;21.066;2022-12-29T09:25:33;6.70;;;3.87;;
54627;SDS011;40525;55.926;21.066;2022-12-29T09:27:59;6.33;;;3.33;;
54627;SDS011;40525;55.926;21.066;2022-12-29T09:30:28;7.42;;;4.28;;
54627;SDS011;40525;55.926;21.066;2022-12-29T09:32:54;7.65;;;4.67;;
54627;SDS011;40525;55.926;21.066;2022-12-29T09:35:21;9.50;;;5.15;;
54627;SDS011;40525;55.926;21.066;2022-12-29T09:37:47;9.33;;;4.55;;
54627;SDS011;40525;55.926;21.066;2022-12-29T09:40:28;9.83;;;4.90;;
54627;SDS011;40525;55.926;21.066;2022-12-29T09:43:05;7.42;;;4.70;;
54627;SDS011;40525;55.926;21.066;2022-12-29T09:51:56;5.35;;;3.72;;
54627;SDS011;40525;55.926;21.066;2022-12-29T09:54:39;9.78;;;4.42;;
54627;SDS011;40525;55.926;21.066;2022-12-29T09:58:00;6.53;;;4.10;;
54627;SDS011;40525;55.926;21.066;2022-12-29T09:59:52;8.35;;;4.60;;
54627;SDS011;40525;55.926;21.066;2022-12-29T10:05:03;8.80;;;4.50;;
54627;SDS011;40525;55.926;21.066;2022-12-29T10:07:43;9.15;;;4.30;;
54627;SDS011;40525;55.926;21.066;2022-12-29T10:13:17;6.83;;;3.87;;
54627;SDS011;40525;55.926;21.066;2022-12-29T10:18:59;5.17;;;3.92;;
54627;SDS011;40525;55.926;21.066;2022-12-29T10:21:45;7.70;;;4.62;;
54627;SDS011;40525;55.926;21.066;2022-12-29T10:24:16;8.50;;;4.55;;
54627;SDS011;40525;55.926;21.066;2022-12-29T10:26:44;14.98;;;6.03;;
54627;SDS011;40525;55.926;21.066;2022-12-29T10:29:20;15.58;;;7.30;;
54627;SDS011;40525;55.926;21.066;2022-12-29T10:32:39;14.00;;;6.45;;
54627;SDS011;40525;55.926;21.066;2022-12-29T10:34:36;10.95;;;4.45;;
54627;SDS011;40525;55.926;21.066;2022-12-29T10:40:12;11.73;;;5.62;;
54627;SDS011;40525;55.926;21.066;2022-12-29T10:42:42;6.95;;;4.62;;
54627;SDS011;40525;55.926;21.066;2022-12-29T10:45:14;14.93;;;6.00;;
54627;SDS011;40525;55.926;21.066;2022-12-29T10:47:50;9.08;;;5.62;;
54627;SDS011;40525;55.926;21.066;2022-12-29T10:50:22;8.83;;;5.00;;
54627;SDS011;40525;55.926;21.066;2022-12-29T10:52:51;9.88;;;5.37;;
54627;SDS011;40525;55.926;21.066;2022-12-29T10:55:24;9.90;;;4.55;;
54627;SDS011;40525;55.926;21.066;2022-12-29T10:57:52;11.10;;;6.12;;
54627;SDS011;40525;55.926;21.066;2022-12-29T11:00:21;11.85;;;6.70;;
54627;SDS011;40525;55.926;21.066;2022-12-29T11:02:58;7.55;;;4.62;;
54627;SDS011;40525;55.926;21.066;2022-12-29T11:05:37;10.80;;;5.75;;
54627;SDS011;40525;55.926;21.066;2022-12-29T11:08:14;9.40;;;5.92;;
54627;SDS011;40525;55.926;21.066;2022-12-29T11:11:02;9.45;;;5.08;;
54627;SDS011;40525;55.926;21.066;2022-12-29T11:13:28;9.20;;;4.67;;
54627;SDS011;40525;55.926;21.066;2022-12-29T11:15:58;8.98;;;5.50;;
54627;SDS011;40525;55.926;21.066;2022-12-29T11:18:26;11.50;;;5.90;;
54627;SDS011;40525;55.926;21.066;2022-12-29T11:21:23;12.13;;;5.33;;
54627;SDS011;40525;55.926;21.066;2022-12-29T11:26:30;12.75;;;6.70;;
54627;SDS011;40525;55.926;21.066;2022-12-29T11:34:24;11.10;;;5.75;;
54627;SDS011;40525;55.926;21.066;2022-12-29T11:37:03;11.05;;;6.35;;
54627;SDS011;40525;55.926;21.066;2022-12-29T11:42:37;8.85;;;4.45;;
54627;SDS011;40525;55.926;21.066;2022-12-29T11:45:27;10.50;;;5.65;;
54627;SDS011;40525;55.926;21.066;2022-12-29T11:48:18;12.05;;;6.65;;
54627;SDS011;40525;55.926;21.066;2022-12-29T11:50:53;10.63;;;5.72;;
54627;SDS011;40525;55.926;21.066;2022-12-29T11:53:24;9.73;;;5.67;;
54627;SDS011;40525;55.926;21.066;2022-12-29T11:56:01;8.75;;;5.25;;
54627;SDS011;40525;55.926;21.066;2022-12-29T11:58:35;9.80;;;5.50;;
54627;SDS011;40525;55.926;21.066;2022-12-29T12:01:07;11.28;;;5.55;;
54627;SDS011;40525;55.926;21.066;2022-12-29T12:06:27;11.12;;;4.65;;
54627;SDS011;40525;55.926;21.066;2022-12-29T12:09:02;13.72;;;6.47;;
54627;SDS011;40525;55.926;21.066;2022-12-29T12:11:34;8.80;;;4.28;;
54627;SDS011;40525;55.926;21.066;2022-12-29T12:14:17;8.88;;;5.20;;
54627;SDS011;40525;55.926;21.066;2022-12-29T12:19:51;7.85;;;4.70;;
54627;SDS011;40525;55.926;21.066;2022-12-29T12:22:34;8.53;;;5.25;;
54627;SDS011;40525;55.926;21.066;2022-12-29T12:25:17;10.48;;;5.12;;
54627;SDS011;40525;55.926;21.066;2022-12-29T12:27:55;10.58;;;3.80;;
54627;SDS011;40525;55.926;21.066;2022-12-29T12:30:29;9.28;;;5.05;;
54627;SDS011;40525;55.926;21.066;2022-12-29T12:45:25;8.25;;;5.30;;
54627;SDS011;40525;55.926;21.066;2022-12-29T12:53:58;8.20;;;5.15;;
54627;SDS011;40525;55.926;21.066;2022-12-29T12:59:49;8.10;;;4.60;;
54627;SDS011;40525;55.926;21.066;2022-12-29T13:08:39;8.13;;;4.20;;
54627;SDS011;40525;55.926;21.066;2022-12-29T13:22:52;9.93;;;5.90;;
54627;SDS011;40525;55.926;21.066;2022-12-29T13:31:15;8.78;;;4.70;;
54627;SDS011;40525;55.926;21.066;2022-12-29T13:36:56;11.05;;;5.35;;
54627;SDS011;40525;55.926;21.066;2022-12-29T13:39:39;7.85;;;4.50;;
54627;SDS011;40525;55.926;21.066;2022-12-29T13:42:10;7.50;;;4.40;;
54627;SDS011;40525;55.926;21.066;2022-12-29T13:44:52;7.95;;;3.87;;
54627;SDS011;40525;55.926;21.066;2022-12-29T13:47:30;6.85;;;3.95;;
54627;SDS011;40525;55.926;21.066;2022-12-29T13:56:17;9.63;;;4.87;;
54627;SDS011;40525;55.926;21.066;2022-12-29T13:58:54;7.53;;;4.12;;
54627;SDS011;40525;55.926;21.066;2022-12-29T14:01:35;7.97;;;4.12;;
54627;SDS011;40525;55.926;21.066;2022-12-29T14:04:21;9.70;;;4.53;;
54627;SDS011;40525;55.926;21.066;2022-12-29T14:07:02;9.83;;;4.40;;
54627;SDS011;40525;55.926;21.066;2022-12-29T14:09:42;9.50;;;4.20;;
54627;SDS011;40525;55.926;21.066;2022-12-29T14:12:25;6.15;;;4.42;;
54627;SDS011;40525;55.926;21.066;2022-12-29T14:15:03;8.20;;;4.37;;
54627;SDS011;40525;55.926;21.066;2022-12-29T14:17:36;8.43;;;5.12;;
54627;SDS011;40525;55.926;21.066;2022-12-29T14:20:05;7.47;;;3.77;;
54627;SDS011;40525;55.926;21.066;2022-12-29T14:23:00;6.37;;;3.85;;
54627;SDS011;40525;55.926;21.066;2022-12-29T14:28:39;7.65;;;4.58;;
54627;SDS011;40525;55.926;21.066;2022-12-29T14:34:38;7.72;;;4.53;;
54627;SDS011;40525;55.926;21.066;2022-12-29T14:44:58;6.97;;;4.22;;
54627;SDS011;40525;55.926;21.066;2022-12-29T14:47:33;8.20;;;4.20;;
54627;SDS011;40525;55.926;21.066;2022-12-29T14:50:07;9.63;;;4.30;;
54627;SDS011;40525;55.926;21.066;2022-12-29T14:52:52;6.47;;;4.20;;
54627;SDS011;40525;55.926;21.066;2022-12-29T14:55:38;6.97;;;4.03;;
54627;SDS011;40525;55.926;21.066;2022-12-29T14:58:14;5.83;;;3.25;;
54627;SDS011;40525;55.926;21.066;2022-12-29T15:00:53;9.73;;;4.37;;
54627;SDS011;40525;55.926;21.066;2022-12-29T15:06:11;8.70;;;4.47;;
54627;SDS011;40525;55.926;21.066;2022-12-29T15:17:00;7.62;;;4.05;;
54627;SDS011;40525;55.926;21.066;2022-12-29T15:19:28;6.40;;;3.67;;
54627;SDS011;40525;55.926;21.066;2022-12-29T15:21:56;8.88;;;4.25;;
54627;SDS011;40525;55.926;21.066;2022-12-29T15:24:23;13.15;;;6.45;;
54627;SDS011;40525;55.926;21.066;2022-12-29T15:26:50;10.10;;;4.55;;
54627;SDS011;40525;55.926;21.066;2022-12-29T15:34:22;7.97;;;4.00;;
54627;SDS011;40525;55.926;21.066;2022-12-29T15:36:49;9.28;;;4.75;;
54627;SDS011;40525;55.926;21.066;2022-12-29T15:39:23;7.20;;;3.85;;
54627;SDS011;40525;55.926;21.066;2022-12-29T15:42:44;9.13;;;4.58;;
54627;SDS011;40525;55.926;21.066;2022-12-29T15:44:49;9.25;;;3.98;;
54627;SDS011;40525;55.926;21.066;2022-12-29T15:47:21;8.98;;;5.12;;
54627;SDS011;40525;55.926;21.066;2022-12-29T15:50:02;9.83;;;4.85;;
54627;SDS011;40525;55.926;21.066;2022-12-29T15:52:26;8.27;;;4.37;;
54627;SDS011;40525;55.926;21.066;2022-12-29T15:54:54;7.92;;;4.03;;
54627;SDS011;40525;55.926;21.066;2022-12-29T15:57:24;8.30;;;4.78;;
54627;SDS011;40525;55.926;21.066;2022-12-29T16:00:00;10.75;;;6.00;;
54627;SDS011;40525;55.926;21.066;2022-12-29T16:02:30;10.82;;;5.97;;
54627;SDS011;40525;55.926;21.066;2022-12-29T16:04:57;12.75;;;6.72;;
54627;SDS011;40525;55.926;21.066;2022-12-29T16:07:25;9.90;;;5.72;;
54627;SDS011;40525;55.926;21.066;2022-12-29T16:09:56;9.55;;;5.45;;
54627;SDS011;40525;55.926;21.066;2022-12-29T16:12:26;13.30;;;7.28;;
54627;SDS011;40525;55.926;21.066;2022-12-29T16:15:03;9.63;;;4.65;;
54627;SDS011;40525;55.926;21.066;2022-12-29T16:17:33;11.10;;;5.45;;
54627;SDS011;40525;55.926;21.066;2022-12-29T16:20:23;6.95;;;4.37;;
54627;SDS011;40525;55.926;21.066;2022-12-29T16:22:58;9.08;;;3.95;;
54627;SDS011;40525;55.926;21.066;2022-12-29T16:25:30;9.33;;;5.25;;
54627;SDS011;40525;55.926;21.066;2022-12-29T16:28:00;10.13;;;4.35;;
54627;SDS011;40525;55.926;21.066;2022-12-29T16:30:29;9.38;;;4.55;;
54627;SDS011;40525;55.926;21.066;2022-12-29T16:33:00;11.22;;;4.83;;
54627;SDS011;40525;55.926;21.066;2022-12-29T16:35:44;24.85;;;14.43;;
54627;SDS011;40525;55.926;21.066;2022-12-29T16:38:13;10.58;;;5.85;;
54627;SDS011;40525;55.926;21.066;2022-12-29T16:40:49;8.98;;;5.58;;
54627;SDS011;40525;55.926;21.066;2022-12-29T16:43:26;16.02;;;8.60;;
54627;SDS011;40525;55.926;21.066;2022-12-29T16:48:48;9.83;;;4.55;;
54627;SDS011;40525;55.926;21.066;2022-12-29T16:53:57;8.20;;;4.25;;
54627;SDS011;40525;55.926;21.066;2022-12-29T16:56:29;12.18;;;6.83;;
54627;SDS011;40525;55.926;21.066;2022-12-29T17:02:00;9.23;;;4.70;;
54627;SDS011;40525;55.926;21.066;2022-12-29T17:04:31;12.98;;;7.00;;
54627;SDS011;40525;55.926;21.066;2022-12-29T17:06:57;7.47;;;4.75;;
54627;SDS011;40525;55.926;21.066;2022-12-29T17:09:25;10.70;;;5.35;;
54627;SDS011;40525;55.926;21.066;2022-12-29T17:11:54;9.33;;;4.83;;
54627;SDS011;40525;55.926;21.066;2022-12-29T17:14:46;10.95;;;4.67;;
54627;SDS011;40525;55.926;21.066;2022-12-29T17:17:13;11.78;;;6.20;;
54627;SDS011;40525;55.926;21.066;2022-12-29T17:19:52;8.60;;;4.08;;
54627;SDS011;40525;55.926;21.066;2022-12-29T17:22:24;16.90;;;6.85;;
54627;SDS011;40525;55.926;21.066;2022-12-29T17:24:53;23.70;;;7.83;;
54627;SDS011;40525;55.926;21.066;2022-12-29T17:27:24;14.00;;;4.05;;
54627;SDS011;40525;55.926;21.066;2022-12-29T17:30:02;20.37;;;6.85;;
54627;SDS011;40525;55.926;21.066;2022-12-29T17:32:33;22.17;;;8.45;;
54627;SDS011;40525;55.926;21.066;2022-12-29T17:34:59;20.17;;;6.85;;
54627;SDS011;40525;55.926;21.066;2022-12-29T17:37:34;12.98;;;5.90;;
54627;SDS011;40525;55.926;21.066;2022-12-29T17:40:03;18.07;;;6.72;;
54627;SDS011;40525;55.926;21.066;2022-12-29T17:42:32;18.65;;;6.30;;
54627;SDS011;40525;55.926;21.066;2022-12-29T17:45:03;16.40;;;6.90;;
54627;SDS011;40525;55.926;21.066;2022-12-29T17:47:31;14.63;;;5.65;;